Time;durP1;ratioP1;P1;durP2;ratioP2;P2;SDS_P1;SDS_P2;PMS_P1;PMS_P2;Temp;Humidity;BMP_temperature;BMP_pressure;BME280_temperature;BME280_humidity;BME280_pressure;Samples;Min_cycle;Max_cycle;Signal;HPM_P1;HPM_P2
2023/10/14 00:01:34;;;;;;;1.20;0.60;;;14.00;99.90;;;;;;5004355;28;20377;-70
2023/10/14 00:04:04;;;;;;;2.67;1.10;;;13.90;99.90;;;;;;5011072;28;20042;-70
2023/10/14 00:06:33;;;;;;;2.15;1.10;;;14.00;99.90;;;;;;5008752;28;20052;-70
2023/10/14 00:09:01;;;;;;;1.85;0.73;;;13.90;99.90;;;;;;5023604;28;20033;-70
2023/10/14 00:11:35;;;;;;;1.77;0.93;;;13.90;99.90;;;;;;5012392;28;20141;-70
2023/10/14 00:16:41;;;;;;;4.35;1.27;;;13.90;99.90;;;;;;5840906;22;20052;-72
2023/10/14 00:19:09;;;;;;;1.90;0.80;;;13.90;99.90;;;;;;5039628;28;20127;-72
2023/10/14 00:21:35;;;;;;;1.92;1.00;;;13.90;99.90;;;;;;5052108;28;20045;-72
2023/10/14 00:24:03;;;;;;;4.90;1.15;;;13.90;99.90;;;;;;5046867;28;20108;-72
2023/10/14 00:26:30;;;;;;;2.33;1.38;;;13.90;99.90;;;;;;5048572;28;20473;-72
2023/10/14 00:31:41;;;;;;;4.00;1.27;;;13.90;99.90;;;;;;5029106;28;20037;-72
2023/10/14 00:34:07;;;;;;;3.40;1.30;;;13.90;99.90;;;;;;5029648;28;20037;-72
2023/10/14 00:36:34;;;;;;;2.53;1.52;;;13.90;99.90;;;;;;5044336;28;20048;-72
2023/10/14 00:39:12;;;;;;;4.95;1.50;;;13.90;99.90;;;;;;5050658;28;20040;-72
2023/10/14 00:41:42;;;;;;;5.38;1.33;;;13.90;99.90;;;;;;5020201;28;20048;-72
2023/10/14 00:57:05;;;;;;;5.10;1.33;;;13.80;99.90;;;;;;5027386;28;20386;-68
2023/10/14 00:59:30;;;;;;;5.70;1.40;;;13.80;99.90;;;;;;5029897;28;20045;-69
2023/10/14 01:01:58;;;;;;;6.18;1.60;;;13.80;99.90;;;;;;5036690;28;20040;-69
2023/10/14 01:04:32;;;;;;;6.78;1.70;;;13.70;99.90;;;;;;5051653;28;20060;-69
2023/10/14 01:09:49;;;;;;;10.90;1.80;;;13.70;99.90;;;;;;5050113;28;20132;-68
2023/10/14 01:12:16;;;;;;;6.43;2.03;;;13.70;99.90;;;;;;5050988;28;20130;-68
2023/10/14 01:14:53;;;;;;;9.32;2.03;;;13.70;99.90;;;;;;5018749;28;20050;-68
2023/10/14 01:17:29;;;;;;;9.52;1.58;;;13.60;99.90;;;;;;5057997;28;20493;-68
2023/10/14 01:20:46;;;;;;;5.63;1.77;;;13.60;99.90;;;;;;5036743;28;20412;-68
2023/10/14 01:22:54;;;;;;;7.65;1.70;;;13.60;99.90;;;;;;5021573;28;20044;-67
2023/10/14 01:25:24;;;;;;;4.53;1.75;;;13.50;99.90;;;;;;5047479;28;20043;-68
2023/10/14 01:27:50;;;;;;;7.40;1.70;;;13.60;99.90;;;;;;5044564;28;20097;-67
2023/10/14 01:30:19;;;;;;;5.40;1.98;;;13.50;99.90;;;;;;5070994;28;20033;-68
2023/10/14 01:37:56;;;;;;;7.57;1.97;;;13.40;99.90;;;;;;5040536;28;20044;-67
2023/10/14 01:42:49;;;;;;;7.80;1.73;;;13.20;99.90;;;;;;5051497;28;20083;-68
2023/10/14 01:45:21;;;;;;;7.82;1.73;;;13.10;99.90;;;;;;5044157;28;20069;-68
2023/10/14 01:48:05;;;;;;;6.50;1.90;;;13.10;99.90;;;;;;5034391;28;20045;-69
2023/10/14 01:50:31;;;;;;;10.40;1.70;;;12.90;99.90;;;;;;5052161;28;20072;-69
2023/10/14 01:53:00;;;;;;;8.95;2.20;;;12.90;99.90;;;;;;5017789;28;20134;-69
2023/10/14 01:55:26;;;;;;;6.65;1.77;;;12.80;99.90;;;;;;5051246;28;20072;-68
2023/10/14 01:57:53;;;;;;;11.07;2.40;;;12.70;99.90;;;;;;5043826;28;20130;-68
2023/10/14 02:00:25;;;;;;;10.27;2.20;;;12.60;99.90;;;;;;5028849;28;20037;-69
2023/10/14 02:03:00;;;;;;;9.75;1.70;;;12.60;99.90;;;;;;5051094;28;20052;-69
2023/10/14 02:05:29;;;;;;;10.82;2.25;;;12.50;99.90;;;;;;5044736;28;20411;-68
2023/10/14 02:07:55;;;;;;;11.43;2.55;;;12.40;99.90;;;;;;5048884;28;20045;-68
2023/10/14 02:10:21;;;;;;;10.43;2.00;;;12.40;99.90;;;;;;5025115;28;20052;-68
2023/10/14 02:12:47;;;;;;;5.47;1.85;;;12.40;99.90;;;;;;5049314;28;20624;-68
2023/10/14 02:15:13;;;;;;;9.57;1.90;;;12.30;99.90;;;;;;5042373;28;20140;-68
2023/10/14 02:17:39;;;;;;;14.82;2.47;;;12.30;99.90;;;;;;5044024;28;20051;-68
2023/10/14 02:20:19;;;;;;;11.02;2.00;;;12.30;99.90;;;;;;5050307;28;20037;-67
2023/10/14 02:22:46;;;;;;;9.73;2.33;;;12.20;99.90;;;;;;5042886;28;20513;-68
2023/10/14 02:25:15;;;;;;;9.45;2.35;;;12.10;99.90;;;;;;5015277;28;20396;-68
2023/10/14 02:27:44;;;;;;;9.70;2.28;;;12.10;99.90;;;;;;5050541;28;20112;-68
2023/10/14 02:30:11;;;;;;;10.75;1.88;;;12.10;99.90;;;;;;5051306;28;20036;-68
2023/10/14 02:32:36;;;;;;;8.35;1.95;;;12.00;99.90;;;;;;5042029;28;20099;-68
2023/10/14 02:35:02;;;;;;;9.18;2.00;;;12.10;99.90;;;;;;5047547;28;20041;-68
2023/10/14 02:37:27;;;;;;;10.73;2.20;;;12.00;99.90;;;;;;5040479;28;20045;-68
2023/10/14 02:39:53;;;;;;;10.45;1.80;;;12.00;99.90;;;;;;5038309;28;20481;-68
2023/10/14 02:42:19;;;;;;;12.23;2.30;;;11.90;99.90;;;;;;5047576;28;20524;-68
2023/10/14 02:44:45;;;;;;;9.15;1.67;;;11.90;99.90;;;;;;5037840;28;20045;-68
2023/10/14 02:47:11;;;;;;;11.10;2.20;;;11.80;99.90;;;;;;5029743;28;20037;-69
2023/10/14 02:49:40;;;;;;;9.05;1.63;;;11.80;99.90;;;;;;5048144;28;20073;-68
2023/10/14 02:52:10;;;;;;;9.70;2.00;;;11.80;99.90;;;;;;5041122;28;20033;-68
2023/10/14 02:54:40;;;;;;;7.07;1.98;;;11.70;99.90;;;;;;5049146;28;20120;-68
2023/10/14 02:57:13;;;;;;;8.60;1.93;;;11.70;99.90;;;;;;5039340;28;20045;-69
2023/10/14 03:02:15;;;;;;;12.65;1.90;;;11.60;99.90;;;;;;5053523;28;20053;-69
2023/10/14 03:09:51;;;;;;;10.50;2.30;;;11.50;99.90;;;;;;5061510;28;20059;-68
2023/10/14 03:12:21;;;;;;;6.93;1.80;;;11.50;99.90;;;;;;5033223;28;20045;-70
2023/10/14 03:14:52;;;;;;;10.98;2.10;;;11.50;99.90;;;;;;5021550;28;20531;-68
2023/10/14 03:17:24;;;;;;;6.70;1.70;;;11.40;99.90;;;;;;5043733;28;20099;-68
2023/10/14 03:19:53;;;;;;;10.07;2.08;;;11.40;99.90;;;;;;5039835;28;20045;-71
2023/10/14 03:22:27;;;;;;;10.35;2.03;;;11.30;99.90;;;;;;5041701;28;20044;-70
2023/10/14 03:25:02;;;;;;;12.35;2.38;;;11.20;99.90;;;;;;5051453;28;20041;-69
2023/10/14 03:27:32;;;;;;;9.88;2.55;;;11.20;99.90;;;;;;5029564;28;20179;-69
2023/10/14 03:29:58;;;;;;;16.75;2.40;;;11.10;99.90;;;;;;5041866;28;20554;-69
2023/10/14 03:32:32;;;;;;;7.45;1.83;;;11.10;99.90;;;;;;5054234;28;20044;-69
2023/10/14 03:34:59;;;;;;;16.20;2.17;;;11.10;99.90;;;;;;5057093;28;20029;-68
2023/10/14 03:37:26;;;;;;;8.45;1.80;;;11.00;99.90;;;;;;5027085;28;20492;-68
2023/10/14 03:42:42;;;;;;;11.90;2.00;;;11.00;99.90;;;;;;5035532;28;20049;-69
2023/10/14 03:45:19;;;;;;;10.70;2.35;;;11.00;99.90;;;;;;5043436;28;20041;-69
2023/10/14 03:47:46;;;;;;;11.02;2.35;;;11.00;99.90;;;;;;5039227;28;20037;-69
2023/10/14 03:50:14;;;;;;;9.95;1.83;;;11.00;99.90;;;;;;5050820;28;20061;-70
2023/10/14 03:52:42;;;;;;;9.35;2.25;;;11.10;99.90;;;;;;5052960;28;20047;-69
2023/10/14 03:55:08;;;;;;;12.85;2.42;;;11.10;99.90;;;;;;5032380;28;20052;-70
2023/10/14 03:57:37;;;;;;;8.18;2.00;;;11.10;99.90;;;;;;5056173;28;20049;-70
2023/10/14 04:00:09;;;;;;;6.75;1.58;;;11.10;99.90;;;;;;5053466;28;20098;-70
2023/10/14 04:02:39;;;;;;;11.10;2.38;;;11.00;99.90;;;;;;5064785;28;20063;-69
2023/10/14 04:05:08;;;;;;;11.93;2.75;;;10.90;99.90;;;;;;5059873;28;20072;-70
2023/10/14 04:07:34;;;;;;;10.80;2.28;;;10.90;99.90;;;;;;5068670;28;20102;-70
2023/10/14 04:10:04;;;;;;;7.07;2.78;;;10.90;99.90;;;;;;5068334;28;20031;-70
2023/10/14 04:12:36;;;;;;;12.25;2.03;;;10.90;99.90;;;;;;5045385;28;20119;-69
2023/10/14 04:17:37;;;;;;;12.85;1.88;;;10.80;99.90;;;;;;5040835;28;20489;-70
2023/10/14 04:22:32;;;;;;;10.45;2.08;;;10.80;99.90;;;;;;5061542;28;20063;-70
2023/10/14 04:25:18;;;;;;;8.38;1.70;;;10.80;99.90;;;;;;5040783;28;20552;-68
2023/10/14 04:30:42;;;;;;;10.88;2.08;;;10.70;99.90;;;;;;5057531;28;20049;-68
2023/10/14 04:33:33;;;;;;;8.07;2.17;;;10.70;99.90;;;;;;5033040;28;20044;-70
2023/10/14 04:38:42;;;;;;;7.30;1.70;;;10.60;99.90;;;;;;5024764;28;20132;-69
2023/10/14 04:41:14;;;;;;;11.50;2.05;;;10.50;99.90;;;;;;5042852;28;20115;-69
2023/10/14 04:46:16;;;;;;;6.38;1.85;;;10.40;99.90;;;;;;5050312;28;20124;-68
2023/10/14 04:48:51;;;;;;;14.95;1.98;;;10.40;99.90;;;;;;5052575;28;20377;-69
2023/10/14 04:51:18;;;;;;;7.95;1.92;;;10.30;99.90;;;;;;5051328;28;20041;-68
2023/10/14 04:53:46;;;;;;;11.70;2.47;;;10.30;99.90;;;;;;5030540;28;20522;-68
2023/10/14 04:56:20;;;;;;;8.63;2.20;;;10.20;99.90;;;;;;5033935;28;20072;-68
2023/10/14 04:58:46;;;;;;;7.63;2.03;;;10.20;99.90;;;;;;5020604;28;20045;-67
2023/10/14 05:01:17;;;;;;;5.50;2.05;;;10.10;99.90;;;;;;5026828;28;20040;-67
2023/10/14 05:03:46;;;;;;;6.72;1.70;;;10.20;99.90;;;;;;5046911;28;20047;-67
2023/10/14 05:08:44;;;;;;;10.45;1.95;;;10.10;99.90;;;;;;5016543;28;20060;-68
2023/10/14 05:11:14;;;;;;;7.75;1.80;;;10.00;99.90;;;;;;5029211;28;20075;-69
2023/10/14 05:13:42;;;;;;;6.30;1.80;;;10.00;99.90;;;;;;5045375;28;20505;-69
2023/10/14 05:16:21;;;;;;;11.15;2.35;;;10.00;99.90;;;;;;5040646;28;20045;-69
2023/10/14 05:19:00;;;;;;;9.10;1.70;;;10.00;99.90;;;;;;5045850;28;20040;-69
2023/10/14 05:21:36;;;;;;;9.30;2.08;;;10.00;99.90;;;;;;5023008;28;20032;-68
2023/10/14 05:24:09;;;;;;;12.82;1.83;;;10.00;99.90;;;;;;5023792;28;20049;-68
2023/10/14 05:26:45;;;;;;;9.68;1.83;;;10.00;99.90;;;;;;5013586;28;20095;-69
2023/10/14 05:29:17;;;;;;;13.45;2.50;;;9.90;99.90;;;;;;5024858;28;20409;-68
2023/10/14 05:31:47;;;;;;;13.90;1.83;;;9.90;99.90;;;;;;5036183;28;20095;-67
2023/10/14 05:34:17;;;;;;;8.77;1.90;;;9.90;99.90;;;;;;5048869;28;20048;-67
2023/10/14 05:36:44;;;;;;;8.98;1.80;;;9.90;99.90;;;;;;5037132;28;20037;-67
2023/10/14 05:39:10;;;;;;;14.98;1.85;;;9.80;99.90;;;;;;5043983;28;20501;-68
2023/10/14 05:41:38;;;;;;;7.22;1.63;;;9.80;99.90;;;;;;5051053;28;20044;-68
2023/10/14 05:44:10;;;;;;;13.02;2.00;;;9.80;99.90;;;;;;5034199;28;20106;-67
2023/10/14 05:46:36;;;;;;;10.98;2.40;;;9.80;99.90;;;;;;5040450;28;20052;-67
2023/10/14 05:49:01;;;;;;;6.93;1.25;;;9.80;99.90;;;;;;5046038;28;20029;-68
2023/10/14 05:51:27;;;;;;;10.32;1.88;;;9.70;99.90;;;;;;5051365;28;20048;-69
2023/10/14 05:53:53;;;;;;;9.23;2.28;;;9.70;99.90;;;;;;5057901;28;20393;-68
2023/10/14 05:56:19;;;;;;;6.43;1.50;;;9.70;99.90;;;;;;5062401;28;20045;-69
2023/10/14 05:58:48;;;;;;;13.07;2.10;;;9.70;99.90;;;;;;5030499;28;20421;-69
2023/10/14 06:01:19;;;;;;;9.32;2.22;;;9.70;99.90;;;;;;5036615;28;20053;-69
2023/10/14 06:03:46;;;;;;;10.98;2.00;;;9.70;99.90;;;;;;5061634;28;20041;-69
2023/10/14 06:06:16;;;;;;;10.32;1.70;;;9.70;99.90;;;;;;5062442;28;20045;-69
2023/10/14 06:08:46;;;;;;;9.82;2.08;;;9.70;99.90;;;;;;5038897;28;20041;-69
2023/10/14 06:11:16;;;;;;;10.93;1.70;;;9.70;99.90;;;;;;5043802;28;20078;-69
2023/10/14 06:13:42;;;;;;;10.90;1.60;;;9.70;99.90;;;;;;5065255;28;20040;-69
2023/10/14 06:16:09;;;;;;;9.45;1.80;;;9.80;99.90;;;;;;5052745;28;20041;-68
2023/10/14 06:18:36;;;;;;;12.10;2.25;;;9.80;99.90;;;;;;5041150;28;20040;-69
2023/10/14 06:21:05;;;;;;;9.35;1.85;;;9.90;99.90;;;;;;5060033;28;20068;-69
2023/10/14 06:23:32;;;;;;;10.45;2.13;;;9.90;99.90;;;;;;5055382;28;20045;-68
2023/10/14 06:25:58;;;;;;;8.82;1.67;;;10.00;99.90;;;;;;5033784;28;20077;-69
2023/10/14 06:28:23;;;;;;;16.50;1.98;;;10.00;99.90;;;;;;5051599;28;20084;-69
2023/10/14 06:30:49;;;;;;;12.13;2.00;;;10.00;99.90;;;;;;5055377;28;20507;-68
2023/10/14 06:33:15;;;;;;;15.75;3.42;;;10.00;99.90;;;;;;5034883;28;20477;-68
2023/10/14 06:35:44;;;;;;;11.02;1.80;;;10.10;99.90;;;;;;5024499;28;20095;-68
2023/10/14 06:38:19;;;;;;;16.17;2.25;;;10.10;99.90;;;;;;5045586;28;20496;-68
2023/10/14 06:40:55;;;;;;;14.77;2.30;;;10.10;99.90;;;;;;5030211;28;20041;-68
2023/10/14 06:43:22;;;;;;;11.52;2.00;;;10.20;99.90;;;;;;5035645;28;20546;-68
2023/10/14 06:45:51;;;;;;;16.25;2.70;;;10.10;99.90;;;;;;5040882;28;20048;-68
2023/10/14 06:48:17;;;;;;;11.95;2.22;;;10.20;99.90;;;;;;5055334;28;20049;-68
2023/10/14 06:50:47;;;;;;;8.55;1.90;;;10.20;99.90;;;;;;5024731;28;20049;-68
2023/10/14 06:53:14;;;;;;;9.07;2.17;;;10.30;99.90;;;;;;5040166;28;20037;-70
2023/10/14 06:55:40;;;;;;;13.25;2.00;;;10.30;99.90;;;;;;5048052;28;20056;-68
2023/10/14 06:58:08;;;;;;;16.25;2.35;;;10.50;99.90;;;;;;5052997;28;20083;-68
2023/10/14 07:00:37;;;;;;;9.88;2.03;;;10.60;99.90;;;;;;5057475;28;20124;-69
2023/10/14 07:03:06;;;;;;;13.48;2.20;;;10.60;99.90;;;;;;5043053;28;20083;-68
2023/10/14 07:05:43;;;;;;;11.18;2.28;;;10.70;99.90;;;;;;5050540;28;20045;-69
2023/10/14 07:21:02;;;;;;;12.48;2.10;;;11.00;99.90;;;;;;5047581;28;20505;-69
2023/10/14 07:23:36;;;;;;;17.08;2.25;;;11.10;99.90;;;;;;5030086;28;20044;-70
2023/10/14 07:52:06;;;;;;;18.70;2.85;;;11.80;99.90;;;;;;6041080;22;20585;-69
2023/10/14 07:54:32;;;;;;;17.08;2.30;;;11.80;99.90;;;;;;5053160;28;20057;-69
2023/10/14 07:56:58;;;;;;;22.60;2.65;;;11.90;99.90;;;;;;5043921;28;20033;-68
2023/10/14 07:59:24;;;;;;;20.25;2.88;;;12.00;99.90;;;;;;5030815;28;20045;-69
2023/10/14 08:01:50;;;;;;;14.52;2.55;;;12.00;99.90;;;;;;5034076;28;20033;-69
2023/10/14 08:04:17;;;;;;;16.80;2.55;;;12.10;99.90;;;;;;5008372;28;20057;-69
2023/10/14 08:12:09;;;;;;;11.15;2.30;;;12.20;99.90;;;;;;5079584;22;20041;-70
2023/10/14 08:14:35;;;;;;;14.18;2.28;;;12.30;99.90;;;;;;5019504;28;20130;-70
2023/10/14 08:28:13;;;;;;;16.67;2.28;;;12.60;99.90;;;;;;5410293;22;20049;-70
2023/10/14 08:30:45;;;;;;;10.85;1.98;;;12.70;99.90;;;;;;5010793;28;20122;-72
2023/10/14 08:33:15;;;;;;;12.65;2.45;;;12.80;99.90;;;;;;5021137;28;20045;-71
2023/10/14 08:35:42;;;;;;;17.98;2.38;;;12.80;99.90;;;;;;5049025;28;20113;-69
2023/10/14 08:38:11;;;;;;;19.27;2.42;;;12.90;99.90;;;;;;5027949;28;20078;-70
2023/10/14 08:40:39;;;;;;;13.82;3.17;;;13.00;99.90;;;;;;5026046;28;20500;-69
2023/10/14 08:48:18;;;;;;;12.20;2.63;;;13.20;99.90;;;;;;5234625;22;20045;-68
2023/10/14 08:50:45;;;;;;;9.18;2.33;;;13.10;99.90;;;;;;5043391;28;20048;-69
2023/10/14 08:53:12;;;;;;;18.77;2.80;;;13.10;99.90;;;;;;5032214;28;20041;-68
2023/10/14 08:55:39;;;;;;;18.23;2.85;;;13.30;99.90;;;;;;5027790;28;20536;-69
2023/10/14 08:58:06;;;;;;;17.25;2.65;;;13.30;99.90;;;;;;5057603;28;20072;-70
2023/10/14 09:00:37;;;;;;;11.77;2.22;;;13.30;99.90;;;;;;5057596;28;20032;-69
2023/10/14 09:03:09;;;;;;;11.55;1.98;;;13.30;99.90;;;;;;5029259;28;20037;-68
2023/10/14 09:05:39;;;;;;;11.80;2.10;;;13.20;99.90;;;;;;5032235;28;20052;-67
2023/10/14 09:08:06;;;;;;;9.90;2.20;;;13.10;99.90;;;;;;5036737;28;20063;-67
2023/10/14 09:10:33;;;;;;;7.45;1.60;;;12.90;99.90;;;;;;5047180;28;20067;-67
2023/10/14 09:13:12;;;;;;;11.70;1.85;;;12.90;99.90;;;;;;5022125;28;20056;-67
2023/10/14 09:15:40;;;;;;;6.53;1.20;;;12.70;99.90;;;;;;5047212;28;20036;-68
2023/10/14 09:18:27;;;;;;;8.90;1.75;;;12.70;99.90;;;;;;5048460;28;20040;-68
2023/10/14 09:20:54;;;;;;;10.25;1.90;;;12.50;99.90;;;;;;5037552;28;20037;-67
2023/10/14 09:23:24;;;;;;;5.95;1.80;;;12.50;99.90;;;;;;5032781;28;20052;-68
2023/10/14 09:25:55;;;;;;;6.80;1.60;;;12.50;99.90;;;;;;5051440;28;20056;-68
2023/10/14 09:28:23;;;;;;;6.80;1.65;;;12.50;99.90;;;;;;5024402;28;20040;-68
2023/10/14 09:30:50;;;;;;;13.30;2.17;;;12.50;99.90;;;;;;5033123;28;20037;-68
2023/10/14 09:33:19;;;;;;;10.02;2.03;;;12.40;99.90;;;;;;5033515;28;20116;-68
2023/10/14 09:35:49;;;;;;;11.40;1.98;;;12.30;99.90;;;;;;5025602;28;20052;-69
2023/10/14 09:38:22;;;;;;;8.38;1.95;;;12.50;99.90;;;;;;5045972;28;20047;-69
2023/10/14 09:40:59;;;;;;;9.55;1.88;;;12.60;99.90;;;;;;5051280;28;20116;-69
2023/10/14 09:43:25;;;;;;;12.18;1.98;;;12.70;99.90;;;;;;5051215;28;20040;-70
2023/10/14 09:45:55;;;;;;;8.50;1.52;;;12.70;99.90;;;;;;5033830;28;20083;-70
2023/10/14 09:48:29;;;;;;;11.85;1.88;;;12.90;99.90;;;;;;5042024;28;20060;-70
2023/10/14 09:50:55;;;;;;;12.90;2.30;;;13.00;99.90;;;;;;5049805;28;20412;-70
2023/10/14 09:53:26;;;;;;;12.18;1.90;;;13.40;99.90;;;;;;5039530;28;20091;-68
2023/10/14 09:55:53;;;;;;;9.00;2.20;;;13.50;99.90;;;;;;5043004;28;20064;-67
2023/10/14 09:58:23;;;;;;;14.30;2.13;;;13.60;99.90;;;;;;5022926;28;20112;-69
2023/10/14 10:00:49;;;;;;;13.63;2.22;;;13.80;99.90;;;;;;5039342;28;20036;-68
2023/10/14 10:03:16;;;;;;;10.45;1.77;;;14.00;99.90;;;;;;5049134;28;20118;-68
2023/10/14 10:05:50;;;;;;;14.13;1.92;;;14.20;99.90;;;;;;5041298;28;20052;-69
2023/10/14 10:08:57;;;;;;;11.18;2.20;;;14.30;99.90;;;;;;5041641;28;20420;-70
2023/10/14 10:11:24;;;;;;;8.25;1.60;;;14.20;99.90;;;;;;5051850;28;20036;-70
2023/10/14 10:13:51;;;;;;;8.27;1.90;;;14.10;99.90;;;;;;5056880;28;20041;-71
2023/10/14 10:16:21;;;;;;;9.05;1.90;;;13.90;99.90;;;;;;5050001;28;20033;-70
2023/10/14 10:18:56;;;;;;;10.60;1.98;;;13.70;99.90;;;;;;5054002;28;20033;-71
2023/10/14 10:21:29;;;;;;;2.83;0.90;;;13.50;99.90;;;;;;5035409;28;20378;-70
2023/10/14 10:24:16;;;;;;;4.68;1.02;;;13.00;99.90;;;;;;5041445;28;20100;-68
2023/10/14 10:27:03;;;;;;;3.60;0.70;;;11.90;99.90;;;;;;5036654;28;20060;-69
2023/10/14 10:29:43;;;;;;;6.68;1.20;;;11.40;99.90;;;;;;5033878;28;20421;-69
2023/10/14 10:32:13;;;;;;;7.28;1.17;;;11.20;99.90;;;;;;5029650;28;20095;-71
2023/10/14 10:35:06;;;;;;;5.72;1.35;;;11.40;99.90;;;;;;5046274;28;20397;-69
2023/10/14 10:37:43;;;;;;;6.80;1.40;;;11.50;99.90;;;;;;5011773;28;20183;-69
2023/10/14 10:40:10;;;;;;;9.25;1.20;;;11.80;99.90;;;;;;5031404;28;20037;-69
2023/10/14 10:42:37;;;;;;;10.70;1.67;;;12.10;99.90;;;;;;5022199;28;20040;-70
2023/10/14 10:45:15;;;;;;;6.30;1.63;;;12.50;99.90;;;;;;5047095;28;20045;-70
2023/10/14 10:47:45;;;;;;;10.80;1.80;;;12.80;99.90;;;;;;5030097;28;20525;-70
2023/10/14 10:50:14;;;;;;;11.52;1.80;;;13.00;99.90;;;;;;5053571;28;20048;-70
2023/10/14 10:52:41;;;;;;;15.00;1.88;;;13.30;99.90;;;;;;5041748;28;20048;-70
2023/10/14 10:55:08;;;;;;;10.88;1.65;;;13.50;99.90;;;;;;5048822;28;20048;-71
2023/10/14 10:57:35;;;;;;;5.65;1.15;;;13.80;99.90;;;;;;5039819;28;20095;-72
2023/10/14 11:00:01;;;;;;;8.10;1.63;;;14.00;99.90;;;;;;5026832;28;20041;-72
2023/10/14 11:02:29;;;;;;;4.82;1.35;;;13.80;99.90;;;;;;5020300;28;20041;-71
2023/10/14 11:04:55;;;;;;;9.23;1.40;;;13.60;99.90;;;;;;5037364;28;20048;-71
2023/10/14 11:07:23;;;;;;;10.13;1.80;;;13.40;99.90;;;;;;5050607;28;20033;-71
2023/10/14 11:09:49;;;;;;;9.18;1.80;;;13.40;99.90;;;;;;5016928;28;20071;-71
2023/10/14 11:12:15;;;;;;;9.13;1.40;;;13.40;99.90;;;;;;5044558;28;20448;-71
2023/10/14 11:14:40;;;;;;;9.60;1.80;;;13.50;99.90;;;;;;5032319;28;20039;-71
2023/10/14 11:17:07;;;;;;;9.85;1.83;;;13.40;99.90;;;;;;5027590;28;20045;-71
2023/10/14 11:19:33;;;;;;;7.80;1.90;;;13.40;99.90;;;;;;5034181;28;20037;-71
2023/10/14 11:22:01;;;;;;;2.03;0.88;;;13.40;99.90;;;;;;5035894;28;20037;-70
2023/10/14 11:24:26;;;;;;;7.18;1.45;;;13.40;99.90;;;;;;5031208;28;20064;-70
2023/10/14 11:26:53;;;;;;;8.40;1.42;;;13.10;99.90;;;;;;5034718;28;20164;-70
2023/10/14 11:29:29;;;;;;;6.97;1.30;;;12.80;99.90;;;;;;5027926;28;20145;-71
2023/10/14 11:31:58;;;;;;;7.55;1.42;;;12.80;99.90;;;;;;5050827;28;20036;-70
2023/10/14 11:34:24;;;;;;;9.15;1.50;;;12.80;99.90;;;;;;5041973;28;20132;-70
2023/10/14 11:36:50;;;;;;;9.45;2.17;;;12.80;99.90;;;;;;5051516;28;20052;-70
2023/10/14 11:39:18;;;;;;;10.75;1.80;;;12.90;99.90;;;;;;5053392;28;20036;-70
2023/10/14 11:41:44;;;;;;;7.30;1.23;;;13.20;99.90;;;;;;5036445;28;20037;-70
2023/10/14 11:44:10;;;;;;;11.10;1.67;;;13.40;99.90;;;;;;5032427;28;20068;-70
2023/10/14 11:46:39;;;;;;;10.13;1.85;;;13.40;99.90;;;;;;5042111;28;20069;-70
2023/10/14 11:49:11;;;;;;;8.23;1.50;;;13.40;99.90;;;;;;5031536;28;20696;-70
2023/10/14 11:51:41;;;;;;;10.82;2.03;;;13.20;99.90;;;;;;5026166;28;20061;-70
2023/10/14 11:54:08;;;;;;;9.43;1.30;;;13.20;99.90;;;;;;5039639;28;20045;-70
2023/10/14 11:56:33;;;;;;;9.57;1.48;;;13.40;99.90;;;;;;5028863;28;20492;-70
2023/10/14 11:59:04;;;;;;;7.72;2.13;;;13.50;99.90;;;;;;5042469;28;20099;-70
2023/10/14 12:01:33;;;;;;;8.50;1.40;;;13.60;99.90;;;;;;5052375;28;20041;-70
2023/10/14 12:03:59;;;;;;;6.18;1.48;;;13.60;99.90;;;;;;5042071;28;20072;-70
2023/10/14 12:06:25;;;;;;;8.52;1.48;;;13.50;99.90;;;;;;5039052;28;20539;-69
2023/10/14 12:08:53;;;;;;;4.75;1.35;;;13.30;99.90;;;;;;5042772;28;20044;-70
2023/10/14 12:11:19;;;;;;;24.83;14.52;;;13.30;99.90;;;;;;5042964;28;20147;-70
2023/10/14 12:13:44;;;;;;;8.35;1.35;;;13.50;99.90;;;;;;5051920;28;20080;-70
2023/10/14 12:16:11;;;;;;;7.30;1.65;;;13.60;99.90;;;;;;5046203;28;20520;-71
2023/10/14 12:18:37;;;;;;;6.30;1.40;;;13.90;99.90;;;;;;5034489;28;20045;-70
2023/10/14 12:21:03;;;;;;;10.35;1.60;;;14.00;99.90;;;;;;5043904;28;20066;-70
2023/10/14 12:23:31;;;;;;;6.53;1.55;;;14.00;99.90;;;;;;5044192;28;20524;-69
2023/10/14 12:26:01;;;;;;;7.38;1.30;;;13.80;99.90;;;;;;5045415;28;20102;-70
2023/10/14 12:28:33;;;;;;;11.93;1.80;;;13.70;99.90;;;;;;5044351;28;20084;-70
2023/10/14 12:31:02;;;;;;;6.80;1.85;;;13.60;99.90;;;;;;5052875;28;20519;-71
2023/10/14 12:33:32;;;;;;;6.28;1.40;;;13.60;99.90;;;;;;5043703;28;20104;-70
2023/10/14 12:35:59;;;;;;;8.60;1.60;;;13.60;99.90;;;;;;5032246;28;20517;-69
2023/10/14 12:38:27;;;;;;;6.13;1.33;;;13.70;99.90;;;;;;5051277;28;20033;-70
2023/10/14 12:40:53;;;;;;;8.52;1.60;;;13.80;99.90;;;;;;5024555;28;20041;-70
2023/10/14 12:43:28;;;;;;;8.00;1.40;;;13.80;99.90;;;;;;5044829;28;20059;-70
2023/10/14 12:46:09;;;;;;;7.95;1.70;;;13.80;99.90;;;;;;5047892;28;20040;-70
2023/10/14 12:48:38;;;;;;;9.65;1.67;;;13.80;99.90;;;;;;5042808;28;20056;-70
2023/10/14 12:51:14;;;;;;;6.90;1.45;;;13.80;99.90;;;;;;5063210;28;20037;-70
2023/10/14 12:53:49;;;;;;;10.82;1.55;;;13.90;99.90;;;;;;5052030;28;20519;-70
2023/10/14 12:56:16;;;;;;;8.93;1.70;;;13.90;99.90;;;;;;5046803;28;20037;-70
2023/10/14 12:58:43;;;;;;;4.55;1.50;;;13.70;99.90;;;;;;5050609;28;20044;-72
2023/10/14 13:01:16;;;;;;;7.95;1.63;;;13.40;99.90;;;;;;5052310;28;20045;-72
2023/10/14 13:03:46;;;;;;;8.43;1.67;;;13.20;99.90;;;;;;5051561;28;20049;-72
2023/10/14 13:06:13;;;;;;;5.55;0.98;;;12.90;99.90;;;;;;5048830;28;20504;-71
2023/10/14 13:08:39;;;;;;;5.75;1.23;;;12.50;99.90;;;;;;5034165;28;20523;-71
2023/10/14 13:11:04;;;;;;;6.20;1.50;;;12.50;99.90;;;;;;5052456;28;20523;-71
2023/10/14 13:13:30;;;;;;;8.93;1.55;;;12.30;99.90;;;;;;5044090;28;20462;-71
2023/10/14 13:15:56;;;;;;;7.95;1.52;;;12.30;99.90;;;;;;5045188;28;20045;-71
2023/10/14 13:18:24;;;;;;;12.02;1.80;;;12.50;99.90;;;;;;5050041;28;20064;-71
2023/10/14 13:20:50;;;;;;;9.95;2.10;;;12.70;99.90;;;;;;5042872;28;20401;-71
2023/10/14 13:23:15;;;;;;;11.55;1.70;;;12.90;99.90;;;;;;5016781;28;20094;-71
2023/10/14 13:25:41;;;;;;;11.18;1.60;;;13.00;99.90;;;;;;5040420;28;20041;-71
2023/10/14 13:28:09;;;;;;;9.68;1.77;;;13.10;99.90;;;;;;5037731;28;20044;-71
2023/10/14 13:30:46;;;;;;;10.60;1.90;;;13.00;99.90;;;;;;5028180;28;20509;-71
2023/10/14 13:33:13;;;;;;;10.02;1.85;;;13.00;99.90;;;;;;5030446;28;20086;-71
2023/10/14 13:35:45;;;;;;;11.07;1.65;;;12.90;99.90;;;;;;5033493;28;20389;-71
2023/10/14 13:38:12;;;;;;;6.20;1.40;;;12.80;99.90;;;;;;5045746;28;20048;-71
2023/10/14 13:40:38;;;;;;;13.80;2.25;;;12.90;99.90;;;;;;5027835;28;20041;-71
2023/10/14 13:43:04;;;;;;;7.53;1.70;;;13.00;99.90;;;;;;5042929;28;20106;-71
2023/10/14 13:45:31;;;;;;;9.35;2.10;;;13.10;99.90;;;;;;5051504;28;20484;-71
2023/10/14 13:48:05;;;;;;;10.23;2.03;;;13.10;99.90;;;;;;5028184;28;20044;-71
2023/10/14 13:50:31;;;;;;;6.57;1.70;;;13.20;99.90;;;;;;5028249;28;20394;-71
2023/10/14 13:52:57;;;;;;;7.38;1.63;;;13.20;99.90;;;;;;5033717;28;20052;-71
2023/10/14 13:55:24;;;;;;;8.77;1.67;;;13.20;99.90;;;;;;5027562;28;20047;-71
2023/10/14 13:57:50;;;;;;;6.43;1.52;;;13.30;99.90;;;;;;5030167;28;20397;-71
2023/10/14 14:03:14;;;;;;;8.00;1.85;;;13.30;99.90;;;;;;5025127;28;20085;-71
2023/10/14 14:05:41;;;;;;;9.27;1.95;;;13.20;99.90;;;;;;5041934;28;20095;-71
2023/10/14 14:08:08;;;;;;;13.52;2.03;;;13.30;99.90;;;;;;5038152;28;20699;-71
2023/10/14 14:10:37;;;;;;;6.40;1.50;;;13.30;99.90;;;;;;5050815;28;20552;-71
2023/10/14 14:13:04;;;;;;;9.95;1.73;;;13.20;99.90;;;;;;5036041;28;20072;-71
2023/10/14 14:15:31;;;;;;;9.50;1.83;;;13.20;99.90;;;;;;5042887;28;20067;-71
2023/10/14 14:17:57;;;;;;;9.63;1.98;;;13.30;99.90;;;;;;5032794;28;20080;-71
2023/10/14 14:20:24;;;;;;;7.85;1.98;;;13.30;99.90;;;;;;5044679;28;20054;-72
2023/10/14 14:22:55;;;;;;;7.93;1.77;;;13.30;99.90;;;;;;5054103;28;20052;-71
2023/10/14 14:25:22;;;;;;;7.67;2.00;;;13.30;99.90;;;;;;5033496;28;20512;-71
2023/10/14 14:27:48;;;;;;;8.38;2.00;;;13.30;99.90;;;;;;5047805;28;20369;-71
2023/10/14 14:30:14;;;;;;;6.93;1.90;;;13.20;99.90;;;;;;5040302;28;20045;-71
2023/10/14 14:32:41;;;;;;;11.27;2.00;;;13.20;99.90;;;;;;5046473;28;20037;-72
2023/10/14 14:35:11;;;;;;;13.93;2.25;;;13.20;99.90;;;;;;5048130;28;20071;-71
2023/10/14 14:37:45;;;;;;;10.38;1.73;;;13.30;99.90;;;;;;5013119;28;20041;-72
2023/10/14 14:40:13;;;;;;;10.48;2.30;;;13.40;99.90;;;;;;5016129;28;20037;-72
2023/10/14 14:42:45;;;;;;;7.40;1.80;;;13.50;99.90;;;;;;5025061;28;20049;-70
2023/10/14 14:45:14;;;;;;;9.75;1.65;;;13.40;99.90;;;;;;5031606;28;20045;-69
2023/10/14 14:47:41;;;;;;;9.30;1.92;;;13.30;99.90;;;;;;5024762;28;20044;-69
2023/10/14 14:50:08;;;;;;;8.95;1.60;;;13.20;99.90;;;;;;5036799;28;20396;-68
2023/10/14 14:52:35;;;;;;;3.63;1.20;;;13.00;99.90;;;;;;5037796;28;20059;-70